createdAt,value
2023-03-18T00:01:08.982Z,42.70
2023-03-18T00:03:38.472Z,44.63
2023-03-18T00:06:10.270Z,41.78
2023-03-18T00:08:39.357Z,32.90
2023-03-18T00:11:08.039Z,34.60
2023-03-18T00:13:36.235Z,34.13
2023-03-18T00:16:06.756Z,32.08
2023-03-18T00:18:35.248Z,37.22
2023-03-18T00:21:05.061Z,35.22
2023-03-18T00:23:35.378Z,33.28
2023-03-18T00:26:04.368Z,32.58
2023-03-18T00:28:32.691Z,29.35
2023-03-18T00:31:05.033Z,32.67
2023-03-18T00:33:33.661Z,31.65
2023-03-18T00:36:02.126Z,36.35
2023-03-18T00:38:30.418Z,34.25
2023-03-18T00:41:10.937Z,33.28
2023-03-18T00:43:46.063Z,32.40
2023-03-18T00:46:16.428Z,32.45
2023-03-18T00:48:45.206Z,31.30
2023-03-18T00:51:16.960Z,32.40
2023-03-18T00:53:46.366Z,33.13
2023-03-18T00:56:18.086Z,34.25
2023-03-18T00:58:46.728Z,35.40
2023-03-18T01:01:15.772Z,36.35
2023-03-18T01:03:44.552Z,32.40
2023-03-18T01:06:14.104Z,31.67
2023-03-18T01:08:42.857Z,31.50
2023-03-18T01:11:11.837Z,32.90
2023-03-18T01:13:41.554Z,31.27
2023-03-18T01:16:10.455Z,33.63
2023-03-18T01:18:40.642Z,38.58
2023-03-18T01:21:10.094Z,34.25
2023-03-18T01:23:39.364Z,37.42
2023-03-18T01:26:08.049Z,36.15
2023-03-18T01:28:36.088Z,35.60
2023-03-18T01:31:06.031Z,33.35
2023-03-18T01:33:35.627Z,33.25
2023-03-18T01:36:05.209Z,30.25
2023-03-18T01:38:33.791Z,31.85
2023-03-18T01:41:02.440Z,30.30
2023-03-18T01:43:33.852Z,29.48
2023-03-18T01:46:03.758Z,29.92
2023-03-18T01:48:37.250Z,30.83
2023-03-18T01:51:08.779Z,30.73
2023-03-18T01:53:41.598Z,31.33
2023-03-18T01:56:10.179Z,31.15
2023-03-18T01:58:41.223Z,31.80
2023-03-18T02:01:14.007Z,33.92
2023-03-18T02:06:13.633Z,32.17
2023-03-18T02:08:42.274Z,31.90
2023-03-18T02:11:11.746Z,30.13
2023-03-18T02:13:42.433Z,30.60
2023-03-18T02:16:16.214Z,31.38
2023-03-18T02:18:48.508Z,30.92
2023-03-18T02:21:29.699Z,32.33
2023-03-18T02:24:03.306Z,33.97
2023-03-18T02:26:50.177Z,30.92
2023-03-18T02:29:21.253Z,28.10
2023-03-18T02:31:50.290Z,28.33
2023-03-18T02:34:19.260Z,30.10
2023-03-18T02:36:48.292Z,32.10
2023-03-18T02:39:16.835Z,31.20
2023-03-18T02:41:45.814Z,32.30
2023-03-18T02:44:13.892Z,31.30
2023-03-18T02:46:50.684Z,31.42
2023-03-18T02:49:19.420Z,31.50
2023-03-18T02:51:48.501Z,30.90
2023-03-18T02:54:18.877Z,31.83
2023-03-18T02:56:47.328Z,32.10
2023-03-18T02:59:15.543Z,31.77
2023-03-18T03:01:46.666Z,31.58
2023-03-18T03:04:15.611Z,30.20
2023-03-18T03:06:44.705Z,30.75
2023-03-18T03:09:15.255Z,31.55
2023-03-18T03:11:44.605Z,31.92
2023-03-18T03:14:13.237Z,32.78
2023-03-18T03:16:41.700Z,34.17
2023-03-18T03:19:11.431Z,31.65
2023-03-18T03:21:40.047Z,35.30
2023-03-18T03:24:08.270Z,31.25
2023-03-18T03:26:36.542Z,32.45
2023-03-18T03:29:05.416Z,32.20
2023-03-18T03:31:33.745Z,33.58
2023-03-18T03:34:02.686Z,33.67
2023-03-18T03:36:32.810Z,33.17
2023-03-18T03:39:00.881Z,34.35
2023-03-18T03:41:29.236Z,32.75
2023-03-18T03:43:57.125Z,34.95
2023-03-18T03:46:25.345Z,31.50
2023-03-18T03:48:53.501Z,34.92
2023-03-18T03:51:21.960Z,33.65
2023-03-18T03:53:51.442Z,34.60
2023-03-18T03:56:19.743Z,35.08
2023-03-18T03:58:47.771Z,36.55
2023-03-18T04:01:16.024Z,35.58
2023-03-18T04:03:44.388Z,35.42
2023-03-18T04:06:13.240Z,35.28
2023-03-18T04:08:41.500Z,37.05
2023-03-18T04:11:11.132Z,34.85
2023-03-18T04:13:39.066Z,35.25
2023-03-18T04:16:08.109Z,34.75
2023-03-18T04:18:36.024Z,34.70
2023-03-18T04:21:04.365Z,36.30
2023-03-18T04:23:33.194Z,34.85
2023-03-18T04:26:01.551Z,36.00
2023-03-18T04:28:31.109Z,38.33
2023-03-18T04:30:59.847Z,40.92
2023-03-18T04:33:27.919Z,39.50
2023-03-18T04:35:56.352Z,35.08
2023-03-18T04:38:24.536Z,34.90
2023-03-18T04:40:52.758Z,38.25
2023-03-18T04:43:21.060Z,36.28
2023-03-18T04:45:50.595Z,34.63
2023-03-18T04:48:18.573Z,33.47
2023-03-18T04:50:46.861Z,35.08
2023-03-18T04:53:14.824Z,34.75
2023-03-18T04:55:43.490Z,34.63
2023-03-18T04:58:11.525Z,28.73
2023-03-18T05:00:39.746Z,28.35
2023-03-18T05:03:09.162Z,29.85
2023-03-18T05:05:38.825Z,25.63
2023-03-18T05:08:07.812Z,25.58
2023-03-18T05:10:36.148Z,27.25
2023-03-18T05:13:04.195Z,28.33
2023-03-18T05:15:32.646Z,31.02
2023-03-18T05:18:01.071Z,34.65
2023-03-18T05:20:30.596Z,31.52
2023-03-18T05:22:58.509Z,32.55
2023-03-18T05:25:27.002Z,29.08
2023-03-18T05:27:55.373Z,26.60
2023-03-18T05:30:23.914Z,26.63
2023-03-18T05:32:52.716Z,26.02
2023-03-18T05:35:21.937Z,29.02
2023-03-18T05:37:51.891Z,23.13
2023-03-18T05:40:20.353Z,23.20
2023-03-18T05:42:55.984Z,26.75
2023-03-18T05:45:25.331Z,25.05
2023-03-18T05:47:53.428Z,23.55
2023-03-18T05:50:29.993Z,22.70
2023-03-18T05:52:59.443Z,22.98
2023-03-18T05:55:28.333Z,22.15
2023-03-18T05:57:56.476Z,22.55
2023-03-18T06:00:25.726Z,22.80
2023-03-18T06:02:54.002Z,21.33
2023-03-18T06:05:22.864Z,20.33
2023-03-18T06:07:51.137Z,20.85
2023-03-18T06:10:21.304Z,23.52
2023-03-18T06:12:49.609Z,19.58
2023-03-18T06:15:18.797Z,19.50
2023-03-18T06:17:47.260Z,25.23
2023-03-18T06:20:18.587Z,24.98
2023-03-18T06:22:49.477Z,21.20
2023-03-18T06:25:21.318Z,20.30
2023-03-18T06:27:49.507Z,17.52
2023-03-18T06:30:19.009Z,23.55
2023-03-18T06:32:47.949Z,21.20
2023-03-18T06:35:16.829Z,23.13
2023-03-18T06:37:44.843Z,26.10
2023-03-18T06:40:13.443Z,25.20
2023-03-18T06:42:42.741Z,24.77
2023-03-18T06:45:12.059Z,25.65
2023-03-18T06:47:40.970Z,23.92
2023-03-18T06:50:10.252Z,24.17
2023-03-18T06:52:38.365Z,23.50
2023-03-18T06:55:07.849Z,22.80
2023-03-18T06:57:35.929Z,24.75
2023-03-18T07:00:06.725Z,24.30
2023-03-18T07:02:34.674Z,25.75
2023-03-18T07:05:04.243Z,25.23
2023-03-18T07:07:32.355Z,26.45
2023-03-18T07:10:00.601Z,26.73
2023-03-18T07:12:28.526Z,26.05
2023-03-18T07:14:56.866Z,27.35
2023-03-18T07:17:26.208Z,28.65
2023-03-18T07:19:54.916Z,31.08
2023-03-18T07:22:23.230Z,30.77
2023-03-18T07:24:52.331Z,31.35
2023-03-18T07:27:20.598Z,30.40
2023-03-18T07:29:48.787Z,32.38
2023-03-18T07:32:16.910Z,33.03
2023-03-18T07:34:47.930Z,32.03
2023-03-18T07:37:16.866Z,33.05
2023-03-18T07:39:45.082Z,30.60
2023-03-18T07:42:13.302Z,29.50
2023-03-18T07:44:41.733Z,30.52
2023-03-18T07:47:10.010Z,30.30
2023-03-18T07:49:38.228Z,30.33
2023-03-18T07:52:07.678Z,28.20
2023-03-18T07:54:36.415Z,27.63
2023-03-18T07:57:05.167Z,26.60
2023-03-18T07:59:33.467Z,25.38
2023-03-18T08:02:01.478Z,27.15
2023-03-18T08:04:30.089Z,27.27
2023-03-18T08:06:58.930Z,25.50
2023-03-18T08:09:28.693Z,25.48
2023-03-18T08:11:56.717Z,25.75
2023-03-18T08:14:25.127Z,26.10
2023-03-18T08:16:53.951Z,27.40
2023-03-18T08:19:22.492Z,26.23
2023-03-18T08:21:50.501Z,29.23
2023-03-18T08:24:18.778Z,28.65
2023-03-18T08:26:48.274Z,28.08
2023-03-18T08:29:16.555Z,22.00
2023-03-18T08:31:44.799Z,23.80
2023-03-18T08:34:17.636Z,27.05
2023-03-18T08:36:46.324Z,20.95
2023-03-18T08:39:14.676Z,22.25
2023-03-18T08:41:44.802Z,20.75
2023-03-18T08:44:15.340Z,20.02
2023-03-18T08:46:43.284Z,19.60
2023-03-18T08:49:12.352Z,17.88
2023-03-18T08:51:40.492Z,17.67
2023-03-18T08:54:09.195Z,17.17
2023-03-18T08:56:38.142Z,17.30
2023-03-18T08:59:07.049Z,17.17
2023-03-18T09:01:36.700Z,17.77
2023-03-18T09:04:04.893Z,17.25
2023-03-18T09:06:32.836Z,15.50
2023-03-18T09:09:01.034Z,16.25
2023-03-18T09:11:29.074Z,17.13
2023-03-18T09:13:57.311Z,14.50
2023-03-18T09:16:25.391Z,14.30
2023-03-18T09:18:54.953Z,13.73
2023-03-18T09:21:22.904Z,14.40
2023-03-18T09:23:52.734Z,13.50
2023-03-18T09:26:20.765Z,11.07
2023-03-18T09:28:49.118Z,11.40
2023-03-18T09:31:17.222Z,12.32
2023-03-18T09:33:47.011Z,12.02
2023-03-18T09:36:16.301Z,10.55
2023-03-18T09:38:44.505Z,8.30
2023-03-18T09:41:22.941Z,8.63
2023-03-18T09:43:58.146Z,9.95
2023-03-18T09:46:36.159Z,8.75
2023-03-18T09:49:25.145Z,9.38
2023-03-18T09:52:03.312Z,7.60
2023-03-18T09:54:39.009Z,5.55
2023-03-18T09:57:12.834Z,6.57
2023-03-18T09:59:44.677Z,7.72
2023-03-18T10:02:21.105Z,6.57
2023-03-18T10:04:52.808Z,6.22
2023-03-18T10:07:25.776Z,6.30
2023-03-18T10:09:55.937Z,6.47
2023-03-18T10:12:31.671Z,6.70
2023-03-18T10:15:08.624Z,6.55
2023-03-18T10:17:40.066Z,6.25
2023-03-18T10:20:19.447Z,4.97
2023-03-18T10:23:12.747Z,5.55
2023-03-18T10:25:42.956Z,7.40
2023-03-18T10:28:27.693Z,5.70
2023-03-18T10:31:03.312Z,7.50
2023-03-18T10:33:38.237Z,5.97
2023-03-18T10:36:09.423Z,5.18
2023-03-18T10:38:40.639Z,5.90
2023-03-18T10:41:17.524Z,5.30
2023-03-18T10:43:47.301Z,6.20
2023-03-18T10:46:17.187Z,6.18
2023-03-18T10:48:47.690Z,7.07
2023-03-18T10:51:19.641Z,6.50
2023-03-18T10:53:54.872Z,6.90
2023-03-18T10:56:23.139Z,7.20
2023-03-18T10:58:52.298Z,6.78
2023-03-18T11:01:23.200Z,7.97
2023-03-18T11:03:54.466Z,6.88
2023-03-18T11:06:25.627Z,6.95
2023-03-18T11:09:03.015Z,7.70
2023-03-18T11:11:34.670Z,7.53
2023-03-18T11:14:03.751Z,11.30
2023-03-18T11:16:38.185Z,7.90
2023-03-18T11:19:27.899Z,9.50
2023-03-18T11:22:05.340Z,7.20
2023-03-18T11:24:39.508Z,6.97
2023-03-18T11:27:28.021Z,9.20
2023-03-18T11:29:59.192Z,8.05
2023-03-18T11:32:29.600Z,6.85
2023-03-18T11:34:58.673Z,7.53
2023-03-18T11:37:34.532Z,7.60
2023-03-18T11:40:19.637Z,7.38
2023-03-18T11:42:49.464Z,17.83
2023-03-18T11:45:31.827Z,19.13
2023-03-18T11:48:00.339Z,10.10
2023-03-18T11:50:36.369Z,7.65
2023-03-18T11:53:11.609Z,8.50
2023-03-18T11:55:44.885Z,7.32
2023-03-18T11:58:42.314Z,7.78
2023-03-18T12:01:14.739Z,7.40
2023-03-18T12:04:15.566Z,8.27
2023-03-18T12:06:50.496Z,9.50
2023-03-18T12:09:23.157Z,7.15
2023-03-18T12:12:10.113Z,11.13
2023-03-18T12:14:43.554Z,6.82
2023-03-18T12:17:27.614Z,7.47
2023-03-18T12:20:07.390Z,8.15
2023-03-18T12:23:00.185Z,10.95
2023-03-18T12:25:58.247Z,13.20
2023-03-18T12:28:37.120Z,14.50
2023-03-18T12:31:19.501Z,7.35
2023-03-18T12:36:44.250Z,14.85
2023-03-18T12:40:00.478Z,7.75
2023-03-18T12:42:37.491Z,22.73
2023-03-18T12:45:10.797Z,7.35
2023-03-18T12:47:42.375Z,8.07
2023-03-18T12:50:17.579Z,10.95
2023-03-18T12:52:47.519Z,8.15
2023-03-18T12:55:18.252Z,8.82
2023-03-18T12:57:49.355Z,8.80
2023-03-18T13:00:24.477Z,10.68
2023-03-18T13:03:02.796Z,9.25
2023-03-18T13:05:40.593Z,9.43
2023-03-18T13:08:42.295Z,8.63
2023-03-18T13:11:15.828Z,9.70
2023-03-18T13:13:48.547Z,12.30
2023-03-18T13:16:19.568Z,11.73
2023-03-18T13:18:50.902Z,12.32
2023-03-18T13:21:21.733Z,7.53
2023-03-18T13:24:13.922Z,10.77
2023-03-18T13:27:01.492Z,9.77
2023-03-18T13:29:36.280Z,10.95
2023-03-18T13:32:18.909Z,11.80
2023-03-18T13:35:16.933Z,7.35
2023-03-18T13:38:14.518Z,8.70
2023-03-18T13:41:10.872Z,7.47
2023-03-18T13:43:40.845Z,9.95
2023-03-18T13:46:19.576Z,9.05
2023-03-18T13:48:49.880Z,8.35
2023-03-18T13:51:40.168Z,9.75
2023-03-18T13:54:15.367Z,7.72
2023-03-18T13:56:50.008Z,9.15
2023-03-18T13:59:43.889Z,9.40
2023-03-18T14:02:34.014Z,9.85
2023-03-18T14:05:04.061Z,10.05
2023-03-18T14:07:32.263Z,10.25
2023-03-18T14:10:19.670Z,8.32
2023-03-18T14:12:48.980Z,8.27
2023-03-18T14:15:45.265Z,9.18
2023-03-18T14:18:27.275Z,8.65
2023-03-18T14:21:01.316Z,8.68
2023-03-18T14:23:40.861Z,8.10
2023-03-18T14:26:21.653Z,9.40
2023-03-18T14:28:55.155Z,8.25
2023-03-18T14:31:35.563Z,7.97
2023-03-18T14:34:25.922Z,8.13
2023-03-18T14:37:19.312Z,7.88
2023-03-18T14:39:49.170Z,7.50
2023-03-18T14:42:53.774Z,7.82
2023-03-18T14:45:26.433Z,7.47
2023-03-18T14:47:56.208Z,7.70
2023-03-18T14:50:39.303Z,7.85
2023-03-18T14:53:17.798Z,6.97
2023-03-18T14:55:45.993Z,7.43
2023-03-18T14:58:17.340Z,7.65
2023-03-18T15:00:46.849Z,8.23
2023-03-18T15:03:18.771Z,8.60
2023-03-18T15:05:47.525Z,22.85
2023-03-18T15:08:19.526Z,15.43
2023-03-18T15:10:49.912Z,9.40
2023-03-18T15:13:19.865Z,11.02
2023-03-18T15:15:48.266Z,9.27
2023-03-18T15:18:19.504Z,8.88
2023-03-18T15:20:51.133Z,9.23
2023-03-18T15:23:25.955Z,13.75
2023-03-18T15:25:54.402Z,18.40
2023-03-18T15:28:24.623Z,20.90
2023-03-18T15:30:55.703Z,11.85
2023-03-18T15:33:26.113Z,10.45
2023-03-18T15:35:58.801Z,9.07
2023-03-18T15:38:30.098Z,18.50
2023-03-18T15:41:01.722Z,23.02
2023-03-18T15:43:32.548Z,27.60
2023-03-18T15:46:02.832Z,13.17
2023-03-18T15:48:35.110Z,20.55
2023-03-18T15:51:05.329Z,13.10
2023-03-18T15:53:42.527Z,12.43
2023-03-18T15:56:19.625Z,10.35
2023-03-18T15:58:47.738Z,9.50
2023-03-18T16:01:18.632Z,7.47
2023-03-18T16:03:47.374Z,8.90
2023-03-18T16:06:16.621Z,9.60
2023-03-18T16:08:46.347Z,9.48
2023-03-18T16:11:24.848Z,10.70
2023-03-18T16:13:54.029Z,9.73
2023-03-18T16:16:25.771Z,8.43
2023-03-18T16:21:22.786Z,9.35
2023-03-18T16:23:51.544Z,9.05
2023-03-18T16:26:19.689Z,9.05
2023-03-18T16:28:49.664Z,7.20
2023-03-18T16:31:17.719Z,10.02
2023-03-18T16:33:47.322Z,7.95
2023-03-18T16:36:23.050Z,9.43
2023-03-18T16:38:51.560Z,12.07
2023-03-18T16:41:19.638Z,9.75
2023-03-18T16:43:50.088Z,16.08
2023-03-18T16:46:18.563Z,26.63
2023-03-18T16:48:50.358Z,37.85
2023-03-18T16:51:18.996Z,53.67
2023-03-18T16:53:48.331Z,105.63
2023-03-18T16:56:18.019Z,123.97
2023-03-18T16:58:46.275Z,46.65
2023-03-18T17:01:17.212Z,8.30
2023-03-18T17:03:45.653Z,8.70
2023-03-18T17:06:14.823Z,7.43
2023-03-18T17:08:43.143Z,8.88
2023-03-18T17:11:13.016Z,9.43
2023-03-18T17:13:41.200Z,10.23
2023-03-18T17:16:17.470Z,11.35
2023-03-18T17:18:46.089Z,10.77
2023-03-18T17:21:14.179Z,14.20
2023-03-18T17:23:42.796Z,12.30
2023-03-18T17:26:31.695Z,18.00
2023-03-18T17:29:00.032Z,24.00
2023-03-18T17:31:29.361Z,28.88
2023-03-18T17:33:57.696Z,28.92
2023-03-18T17:36:25.604Z,28.70
2023-03-18T17:38:58.492Z,31.40
2023-03-18T17:41:26.989Z,27.00
2023-03-18T17:43:55.412Z,27.38
2023-03-18T17:46:23.617Z,29.20
2023-03-18T17:48:53.167Z,29.15
2023-03-18T17:51:23.670Z,28.70
2023-03-18T17:53:56.412Z,29.65
2023-03-18T17:56:25.468Z,31.38
2023-03-18T17:58:55.267Z,29.27
2023-03-18T18:01:26.585Z,27.98
2023-03-18T18:03:57.695Z,29.92
2023-03-18T18:06:29.264Z,31.63
2023-03-18T18:09:00.655Z,31.25
2023-03-18T18:11:30.258Z,30.65
2023-03-18T18:14:03.765Z,38.75
2023-03-18T18:16:32.512Z,34.63
2023-03-18T18:19:02.133Z,34.40
2023-03-18T18:21:30.579Z,28.00
2023-03-18T18:23:58.846Z,29.95
2023-03-18T18:26:26.788Z,31.05
2023-03-18T18:28:55.342Z,37.47
2023-03-18T18:31:24.045Z,30.92
2023-03-18T18:33:54.773Z,31.88
2023-03-18T18:36:27.912Z,31.45
2023-03-18T18:38:56.199Z,29.80
2023-03-18T18:41:24.090Z,26.35
2023-03-18T18:43:52.662Z,25.75
2023-03-18T18:46:21.751Z,25.55
2023-03-18T18:48:50.048Z,26.67
2023-03-18T18:51:19.319Z,27.83
2023-03-18T18:53:49.695Z,28.02
2023-03-18T18:56:19.754Z,27.05
2023-03-18T18:58:48.588Z,29.25
2023-03-18T19:01:16.954Z,29.05
2023-03-18T19:03:45.279Z,29.77
2023-03-18T19:06:22.951Z,30.63
2023-03-18T19:08:53.013Z,31.88
2023-03-18T19:11:21.513Z,39.95
2023-03-18T19:13:50.571Z,45.05
2023-03-18T19:16:25.558Z,40.75
2023-03-18T19:18:53.743Z,36.67
2023-03-18T19:21:21.937Z,35.70
2023-03-18T19:23:51.732Z,35.75
2023-03-18T19:26:21.233Z,42.35
2023-03-18T19:29:00.045Z,46.97
2023-03-18T19:31:30.500Z,41.45
2023-03-18T19:34:00.827Z,44.05
2023-03-18T19:36:30.761Z,46.08
2023-03-18T19:39:01.932Z,29.20
2023-03-18T19:41:30.732Z,30.17
2023-03-18T19:44:03.987Z,46.83
2023-03-18T19:46:36.528Z,52.67
2023-03-18T19:49:06.929Z,53.60
2023-03-18T19:51:35.028Z,55.42
2023-03-18T19:54:05.568Z,53.88
2023-03-18T19:56:33.496Z,51.90
2023-03-18T19:59:01.704Z,46.45
2023-03-18T20:01:30.269Z,43.80
2023-03-18T20:04:00.700Z,37.10
2023-03-18T20:06:28.921Z,54.50
2023-03-18T20:08:57.098Z,59.63
2023-03-18T20:11:26.555Z,56.35
2023-03-18T20:13:54.930Z,54.50
2023-03-18T20:16:24.047Z,55.60
2023-03-18T20:18:52.335Z,54.22
2023-03-18T20:21:24.597Z,58.03
2023-03-18T20:23:53.901Z,59.65
2023-03-18T20:26:23.142Z,52.58
2023-03-18T20:28:55.759Z,49.35
2023-03-18T20:31:23.735Z,46.80
2023-03-18T20:33:52.200Z,50.63
2023-03-18T20:36:20.910Z,52.80
2023-03-18T20:38:50.266Z,53.13
2023-03-18T20:41:19.039Z,51.85
2023-03-18T20:43:49.381Z,55.25
2023-03-18T20:46:19.971Z,48.13
2023-03-18T20:48:49.872Z,44.38
2023-03-18T20:51:21.713Z,45.50
2023-03-18T20:53:50.265Z,40.28
2023-03-18T20:56:19.410Z,34.30
2023-03-18T20:58:47.691Z,39.45
2023-03-18T21:01:16.365Z,39.15
2023-03-18T21:03:46.058Z,32.63
2023-03-18T21:06:15.833Z,32.70
2023-03-18T21:08:44.054Z,36.78
2023-03-18T21:11:21.735Z,36.20
2023-03-18T21:13:50.494Z,31.90
2023-03-18T21:16:19.890Z,34.22
2023-03-18T21:18:49.943Z,31.77
2023-03-18T21:21:24.393Z,30.33
2023-03-18T21:23:53.881Z,29.27
2023-03-18T21:26:22.527Z,41.05
2023-03-18T21:28:50.804Z,51.45
2023-03-18T21:31:25.165Z,51.28
2023-03-18T21:33:55.358Z,56.65
2023-03-18T21:36:23.406Z,55.88
2023-03-18T21:38:51.767Z,53.70
2023-03-18T21:41:21.649Z,53.30
2023-03-18T21:43:50.926Z,53.05
2023-03-18T21:46:21.190Z,45.45
2023-03-18T21:48:49.535Z,40.10
2023-03-18T21:51:37.617Z,34.85
2023-03-18T21:54:07.726Z,30.73
2023-03-18T21:56:35.842Z,33.85
2023-03-18T21:59:04.281Z,32.10
2023-03-18T22:01:32.565Z,28.75
2023-03-18T22:04:01.213Z,29.10
2023-03-18T22:06:30.776Z,27.95
2023-03-18T22:08:58.977Z,26.73
2023-03-18T22:11:27.054Z,32.90
2023-03-18T22:13:55.606Z,26.88
2023-03-18T22:16:23.673Z,25.00
2023-03-18T22:18:52.495Z,23.95
2023-03-18T22:21:22.527Z,22.65
2023-03-18T22:23:52.104Z,20.73
2023-03-18T22:26:21.318Z,20.08
2023-03-18T22:28:50.519Z,23.50
2023-03-18T22:31:21.265Z,18.30
2023-03-18T22:33:49.821Z,18.70
2023-03-18T22:36:18.548Z,26.80
2023-03-18T22:38:47.066Z,28.77
2023-03-18T22:41:20.659Z,30.80
2023-03-18T22:43:49.152Z,31.80
2023-03-18T22:46:17.457Z,34.30
2023-03-18T22:48:45.997Z,33.92
2023-03-18T22:51:20.818Z,33.42
2023-03-18T22:53:51.092Z,35.28
2023-03-18T22:56:20.945Z,46.65
2023-03-18T22:58:49.189Z,47.03
2023-03-18T23:01:18.511Z,41.60
2023-03-18T23:03:47.488Z,39.25
2023-03-18T23:06:16.848Z,38.45
2023-03-18T23:08:46.105Z,32.78
2023-03-18T23:11:14.775Z,32.72
2023-03-18T23:13:46.162Z,35.10
2023-03-18T23:16:16.666Z,34.08
2023-03-18T23:18:45.069Z,35.78
2023-03-18T23:21:16.405Z,34.55
2023-03-18T23:23:44.684Z,34.42
2023-03-18T23:26:12.739Z,33.70
2023-03-18T23:28:44.944Z,34.38
2023-03-18T23:33:43.002Z,32.00
2023-03-18T23:36:10.997Z,33.10
2023-03-18T23:38:39.374Z,33.72
2023-03-18T23:41:08.045Z,32.72
2023-03-18T23:43:36.717Z,30.40
2023-03-18T23:46:04.754Z,31.83
2023-03-18T23:48:34.330Z,27.48
2023-03-18T23:51:02.273Z,30.65
2023-03-18T23:53:30.532Z,28.80
2023-03-18T23:55:58.469Z,30.92
2023-03-18T23:58:26.674Z,28.30
